Tropical Cyclones
[Index]
Main Index Home Page Stock Weather Photos Extreme Storms Discussion Storm News and Storm Chasing Reports Tropical Cyclones / Hurricanes / Typhoons Weather Data and Links Wild Fires / Bushfires Weather Observation Techniques Weather Picture Catalogue Tornado Pictures and Reports Stock Video Footage and DVDs for sale
Season 1982-1983 Tropical Cyclone WILLIAM Track Map
Season 1982-1983 Summaries: [BoM-AU] [JTWC-AU] [JTWC-SIO] [JTWC-SPAC] [JTWC-SH]
<<- Previous TC | JTWC 1982-1983 Season | Next TC ->>

click for intensity scale information  Lat/long Grid: Show Hide

 Date Labels: Show Hide

Joint Typhoon Warning Centre Cyclone Data

Name: WILLIAM

15 Apr 1983 12:00 UTC to 23 Apr 1983 00:00 UTC

    date/time    lat    long     hPa   cat  kts
1983-04-15 12   10.0   131.4W                 30          
1983-04-15 18   10.4   131.6W                 32          
1983-04-16 00   10.9   132.0W                 35          
1983-04-16 06   11.2   132.4W                 37          
1983-04-16 12   11.6   133.0W           1     40          
1983-04-16 18   11.9   133.4W           1     42          
1983-04-17 00   12.4   133.9W           1     45          
1983-04-17 06   12.9   134.1W           1     45          
1983-04-17 12   13.5   134.4W           1     45          
1983-04-17 18   13.8   134.5W           1     46          
1983-04-18 00   14.2   134.8W           1     50          
1983-04-18 06   14.6   135.2W           2     55          
1983-04-18 12   15.1   136.0W           2     60          
1983-04-18 18   15.5   136.8W           2     62          
1983-04-19 00   15.9   137.7W           2     65          
1983-04-19 06   16.0   138.4W           2     67          
1983-04-19 12   16.2   139.1W           2     70          
1983-04-19 18   16.7   139.6W           3     72          
1983-04-20 00   17.2   139.9W           3     75          
1983-04-20 06   17.6   139.9W           3     76          
1983-04-20 12   18.2   139.6W           3     75          
1983-04-20 18   18.8   139.0W           3     72          
1983-04-21 00   19.5   138.3W           2     70          
1983-04-21 06   20.1   137.3W           2     67          
1983-04-21 12   20.8   136.1W           2     65          
1983-04-21 18   21.3   134.7W           2     62          
1983-04-22 00   21.9   133.0W           2     60          
1983-04-22 06   21.9   130.8W           2     55          
1983-04-22 12   22.0   128.7W           1     50          
1983-04-22 18   22.5   126.5W           1     43          
1983-04-23 00   23.5   124.3W                 34          
Winds are 1-min average.

Tropical cyclone tracks developed by Michael Bath using data from the Joint Typhoon Warning Centre Best Tracks and Google Maps.


[Australian Severe Weather index] [Copyright Notice] [Email Contacts] [Search This Site] [Privacy Policy]
Document: tropical_cyclone_william.htm Updated: 18 September 2016